createdAt,value
2023-02-09T00:00:09.031Z,12.23
2023-02-09T00:02:44.823Z,13.00
2023-02-09T00:05:15.025Z,12.03
2023-02-09T00:07:44.776Z,11.30
2023-02-09T00:10:13.396Z,11.63
2023-02-09T00:12:59.220Z,12.07
2023-02-09T00:15:27.908Z,11.80
2023-02-09T00:17:57.110Z,11.33
2023-02-09T00:20:27.470Z,11.43
2023-02-09T00:22:56.128Z,11.67
2023-02-09T00:25:24.862Z,11.23
2023-02-09T00:27:53.555Z,11.10
2023-02-09T00:30:22.250Z,11.83
2023-02-09T00:32:51.088Z,11.63
2023-02-09T00:35:20.613Z,10.30
2023-02-09T00:37:50.848Z,11.07
2023-02-09T00:40:19.729Z,10.67
2023-02-09T00:42:48.338Z,12.17
2023-02-09T00:45:18.961Z,11.87
2023-02-09T00:47:47.523Z,11.37
2023-02-09T00:50:16.508Z,11.47
2023-02-09T00:52:45.301Z,11.40
2023-02-09T00:55:15.308Z,11.80
2023-02-09T00:57:44.089Z,11.13
2023-02-09T01:00:14.803Z,10.83
2023-02-09T01:02:43.798Z,10.83
2023-02-09T01:05:12.549Z,11.80
2023-02-09T01:07:41.209Z,10.17
2023-02-09T01:10:10.568Z,11.20
2023-02-09T01:12:42.312Z,10.93
2023-02-09T01:15:12.273Z,11.53
2023-02-09T01:17:41.863Z,12.17
2023-02-09T01:20:15.014Z,12.17
2023-02-09T01:22:43.942Z,11.60
2023-02-09T01:25:12.960Z,11.33
2023-02-09T01:27:43.034Z,11.77
2023-02-09T01:30:12.672Z,11.27
2023-02-09T01:32:41.513Z,12.00
2023-02-09T01:35:10.899Z,11.73
2023-02-09T01:37:40.493Z,10.77
2023-02-09T01:40:11.106Z,11.43
2023-02-09T01:42:44.502Z,11.63
2023-02-09T01:45:26.905Z,11.87
2023-02-09T01:47:59.395Z,11.67
2023-02-09T01:50:30.832Z,11.80
2023-02-09T01:52:59.784Z,11.77
2023-02-09T01:55:33.937Z,11.80
2023-02-09T01:58:09.015Z,12.63
2023-02-09T02:00:37.853Z,11.63
2023-02-09T02:03:10.857Z,10.93
2023-02-09T02:05:43.785Z,11.30
2023-02-09T02:08:18.054Z,10.53
2023-02-09T02:10:47.206Z,10.53
2023-02-09T02:13:17.748Z,10.40
2023-02-09T02:15:56.696Z,10.47
2023-02-09T02:18:39.190Z,10.67
2023-02-09T02:21:52.593Z,11.10
2023-02-09T02:24:41.676Z,9.60
2023-02-09T02:27:17.672Z,9.67
2023-02-09T02:30:20.199Z,9.47
2023-02-09T02:33:01.887Z,9.67
2023-02-09T02:35:36.925Z,9.80
2023-02-09T02:38:18.904Z,9.50
2023-02-09T02:40:56.410Z,9.77
2023-02-09T02:43:35.904Z,10.30
2023-02-09T02:46:09.997Z,9.63
2023-02-09T02:48:44.207Z,10.63
2023-02-09T02:51:18.464Z,9.90
2023-02-09T02:53:52.805Z,9.87
2023-02-09T02:56:25.497Z,9.40
2023-02-09T02:58:58.380Z,9.97
2023-02-09T03:01:31.640Z,10.40
2023-02-09T03:04:04.187Z,9.17
2023-02-09T03:06:34.232Z,10.90
2023-02-09T03:09:03.514Z,10.47
2023-02-09T03:11:36.121Z,10.00
2023-02-09T03:14:20.561Z,10.03
2023-02-09T03:16:53.080Z,9.33
2023-02-09T03:19:34.516Z,8.80
2023-02-09T03:22:07.843Z,9.70
2023-02-09T03:24:47.971Z,9.47
2023-02-09T03:27:20.701Z,10.30
2023-02-09T03:29:52.008Z,10.40
2023-02-09T03:32:21.946Z,10.40
2023-02-09T03:34:52.965Z,10.67
2023-02-09T03:37:21.948Z,10.03
2023-02-09T03:39:50.729Z,10.10
2023-02-09T03:42:19.453Z,9.43
2023-02-09T03:44:48.074Z,10.23
2023-02-09T03:47:16.656Z,10.87
2023-02-09T03:49:45.699Z,10.47
2023-02-09T03:52:18.033Z,10.37
2023-02-09T03:54:47.966Z,11.17
2023-02-09T03:57:16.555Z,10.70
2023-02-09T03:59:45.187Z,10.40
2023-02-09T04:02:13.777Z,10.57
2023-02-09T04:04:42.449Z,10.53
2023-02-09T04:07:12.182Z,10.63
2023-02-09T04:09:42.332Z,10.73
2023-02-09T04:12:10.903Z,11.13
2023-02-09T04:14:39.561Z,10.90
2023-02-09T04:17:08.244Z,10.43
2023-02-09T04:19:36.988Z,10.83
2023-02-09T04:22:05.757Z,11.10
2023-02-09T04:24:36.460Z,11.00
2023-02-09T04:27:06.759Z,10.37
2023-02-09T04:29:35.544Z,10.60
2023-02-09T04:32:04.312Z,10.80
2023-02-09T04:34:36.058Z,10.43
2023-02-09T04:37:04.653Z,10.33
2023-02-09T04:39:33.241Z,11.10
2023-02-09T04:42:01.856Z,10.47
2023-02-09T04:44:32.168Z,10.67
2023-02-09T04:47:01.037Z,10.60
2023-02-09T04:49:29.791Z,9.60
2023-02-09T04:52:50.666Z,10.37
2023-02-09T04:55:19.433Z,10.07
2023-02-09T04:58:05.491Z,10.83
2023-02-09T05:00:35.709Z,9.70
2023-02-09T05:03:04.580Z,10.57
2023-02-09T05:06:11.997Z,10.03
2023-02-09T05:08:40.679Z,9.93
2023-02-09T05:11:09.752Z,10.37
2023-02-09T05:13:38.932Z,9.77
2023-02-09T05:16:08.468Z,9.30
2023-02-09T05:18:37.940Z,9.33
2023-02-09T05:21:07.269Z,9.97
2023-02-09T05:23:37.529Z,10.27
2023-02-09T05:26:06.479Z,9.73
2023-02-09T05:28:35.347Z,9.60
2023-02-09T05:31:04.212Z,9.73
2023-02-09T05:33:33.091Z,9.40
2023-02-09T05:36:01.905Z,9.47
2023-02-09T05:38:30.571Z,10.00
2023-02-09T05:41:05.584Z,10.27
2023-02-09T05:43:34.187Z,9.57
2023-02-09T05:46:02.886Z,9.73
2023-02-09T05:49:02.238Z,10.30
2023-02-09T05:51:30.839Z,9.83
2023-02-09T05:53:59.469Z,9.83
2023-02-09T05:56:30.184Z,9.80
2023-02-09T05:58:58.991Z,9.80
2023-02-09T06:01:27.716Z,10.40
2023-02-09T06:03:56.306Z,9.97
2023-02-09T06:06:24.891Z,9.63
2023-02-09T06:08:53.678Z,9.90
2023-02-09T06:11:22.338Z,9.77
2023-02-09T06:13:52.993Z,9.80
2023-02-09T06:16:21.649Z,9.47
2023-02-09T06:18:50.456Z,9.67
2023-02-09T06:21:19.424Z,9.00
2023-02-09T06:23:48.246Z,9.73
2023-02-09T06:26:19.066Z,10.07
2023-02-09T06:28:48.013Z,9.30
2023-02-09T06:31:18.446Z,10.13
2023-02-09T06:33:47.186Z,10.77
2023-02-09T06:36:15.949Z,17.60
2023-02-09T06:38:44.662Z,11.80
2023-02-09T06:41:13.598Z,11.43
2023-02-09T06:43:42.421Z,15.43
2023-02-09T06:46:13.328Z,11.10
2023-02-09T06:48:43.618Z,10.80
2023-02-09T06:51:13.989Z,10.33
2023-02-09T06:53:58.889Z,11.13
2023-02-09T06:56:28.156Z,10.93
2023-02-09T06:58:57.398Z,11.50
2023-02-09T07:01:26.075Z,11.77
2023-02-09T07:03:56.410Z,10.70
2023-02-09T07:06:25.537Z,12.00
2023-02-09T07:08:54.396Z,11.03
2023-02-09T07:11:23.298Z,11.60
2023-02-09T07:13:52.057Z,11.10
2023-02-09T07:16:21.044Z,11.47
2023-02-09T07:18:49.859Z,10.93
2023-02-09T07:21:21.585Z,11.53
2023-02-09T07:23:52.933Z,11.43
2023-02-09T07:26:21.735Z,11.23
2023-02-09T07:28:50.479Z,11.73
2023-02-09T07:31:19.921Z,11.97
2023-02-09T07:33:48.865Z,11.60
2023-02-09T07:36:20.116Z,12.60
2023-02-09T07:38:49.293Z,13.17
2023-02-09T07:41:20.812Z,13.47
2023-02-09T07:43:50.098Z,13.67
2023-02-09T07:46:21.279Z,13.67
2023-02-09T07:48:51.937Z,13.27
2023-02-09T07:51:25.571Z,13.60
2023-02-09T07:53:54.792Z,13.87
2023-02-09T07:56:24.117Z,12.83
2023-02-09T07:58:53.661Z,13.17
2023-02-09T08:01:23.371Z,12.67
2023-02-09T08:03:52.685Z,11.57
2023-02-09T08:06:40.977Z,12.23
2023-02-09T08:09:11.939Z,12.47
2023-02-09T08:11:46.040Z,11.67
2023-02-09T08:14:19.694Z,12.57
2023-02-09T08:16:50.003Z,12.70
2023-02-09T08:19:23.473Z,12.90
2023-02-09T08:21:54.125Z,12.87
2023-02-09T08:24:23.414Z,12.07
2023-02-09T08:26:52.286Z,12.03
2023-02-09T08:29:21.384Z,11.53
2023-02-09T08:31:50.336Z,11.10
2023-02-09T08:34:19.302Z,10.67
2023-02-09T08:36:48.135Z,11.13
2023-02-09T08:39:18.280Z,11.30
2023-02-09T08:41:47.051Z,10.43
2023-02-09T08:44:17.724Z,11.30
2023-02-09T08:46:46.721Z,10.13
2023-02-09T08:49:16.878Z,11.23
2023-02-09T08:51:45.824Z,10.57
2023-02-09T08:54:14.717Z,11.10
2023-02-09T08:56:45.000Z,9.83
2023-02-09T08:59:14.620Z,10.00
2023-02-09T09:01:44.221Z,9.93
2023-02-09T09:04:14.366Z,9.67
2023-02-09T09:06:43.995Z,9.60
2023-02-09T09:09:13.263Z,8.97
2023-02-09T09:11:45.726Z,9.37
2023-02-09T09:14:20.664Z,8.63
2023-02-09T09:16:53.011Z,8.10
2023-02-09T09:19:23.356Z,7.43
2023-02-09T09:21:52.611Z,7.00
2023-02-09T09:24:23.568Z,7.63
2023-02-09T09:26:52.925Z,7.23
2023-02-09T09:29:27.263Z,8.03
2023-02-09T09:31:59.444Z,7.57
2023-02-09T09:34:32.851Z,7.93
2023-02-09T09:37:07.158Z,7.50
2023-02-09T09:39:36.431Z,7.17
2023-02-09T09:42:06.520Z,7.43
2023-02-09T09:44:45.604Z,7.80
2023-02-09T09:47:21.948Z,7.80
2023-02-09T09:49:51.491Z,7.20
2023-02-09T09:52:27.287Z,8.43
2023-02-09T09:54:56.446Z,8.43
2023-02-09T09:57:29.045Z,8.27
2023-02-09T10:00:03.671Z,7.97
2023-02-09T10:02:34.927Z,8.00
2023-02-09T10:05:12.919Z,8.50
2023-02-09T10:07:45.834Z,8.13
2023-02-09T10:10:38.346Z,8.33
2023-02-09T10:13:16.245Z,7.80
2023-02-09T10:15:49.517Z,8.70
2023-02-09T10:18:21.413Z,9.40
2023-02-09T10:20:52.070Z,8.80
2023-02-09T10:23:25.177Z,8.43
2023-02-09T10:26:01.034Z,9.03
2023-02-09T10:28:32.572Z,8.00
2023-02-09T10:31:04.660Z,9.03
2023-02-09T10:33:43.078Z,8.33
2023-02-09T10:36:28.106Z,8.40
2023-02-09T10:39:30.235Z,8.93
2023-02-09T10:42:29.675Z,9.63
2023-02-09T10:45:08.377Z,8.50
2023-02-09T10:47:42.278Z,9.40
2023-02-09T10:50:19.529Z,9.73
2023-02-09T10:53:00.748Z,9.53
2023-02-09T10:55:36.104Z,9.07
2023-02-09T10:58:16.370Z,9.73
2023-02-09T11:00:51.224Z,10.80
2023-02-09T11:03:28.792Z,9.87
2023-02-09T11:06:03.326Z,11.03
2023-02-09T11:08:56.337Z,10.13
2023-02-09T11:11:33.318Z,11.03
2023-02-09T11:14:03.037Z,11.43
2023-02-09T11:16:57.879Z,12.23
2023-02-09T11:19:55.399Z,10.83
2023-02-09T11:22:38.825Z,12.60
2023-02-09T11:25:19.587Z,12.87
2023-02-09T11:27:59.242Z,12.67
2023-02-09T11:30:41.160Z,13.30
2023-02-09T11:33:17.828Z,12.33
2023-02-09T11:35:55.799Z,13.47
2023-02-09T11:38:34.840Z,12.37
2023-02-09T11:41:27.146Z,13.57
2023-02-09T11:45:15.680Z,14.37
2023-02-09T11:47:51.963Z,14.80
2023-02-09T11:50:28.084Z,12.90
2023-02-09T11:53:01.158Z,13.07
2023-02-09T11:55:33.325Z,13.60
2023-02-09T11:58:16.773Z,14.03
2023-02-09T12:01:01.693Z,13.77
2023-02-09T12:03:35.692Z,14.63
2023-02-09T12:06:04.914Z,13.70
2023-02-09T12:08:51.670Z,14.33
2023-02-09T12:11:46.539Z,14.97
2023-02-09T12:14:53.998Z,14.10
2023-02-09T12:17:27.548Z,14.53
2023-02-09T12:20:00.312Z,15.43
2023-02-09T12:22:54.103Z,13.90
2023-02-09T12:25:37.489Z,14.63
2023-02-09T12:28:17.320Z,14.37
2023-02-09T12:31:04.208Z,15.50
2023-02-09T12:33:34.989Z,15.97
2023-02-09T12:36:07.235Z,14.60
2023-02-09T12:39:05.078Z,16.00
2023-02-09T12:42:13.595Z,14.40
2023-02-09T12:44:56.739Z,15.10
2023-02-09T12:47:43.410Z,14.77
2023-02-09T12:50:28.098Z,14.70
2023-02-09T12:53:30.386Z,14.70
2023-02-09T12:56:01.580Z,15.30
2023-02-09T12:58:53.754Z,15.07
2023-02-09T13:01:43.933Z,14.50
2023-02-09T13:04:15.313Z,14.63
2023-02-09T13:06:49.102Z,14.30
2023-02-09T13:09:28.351Z,14.10
2023-02-09T13:12:03.833Z,15.00
2023-02-09T13:14:32.565Z,14.77
2023-02-09T13:17:32.581Z,13.90
2023-02-09T13:20:13.745Z,13.87
2023-02-09T13:22:58.721Z,14.03
2023-02-09T13:25:33.147Z,13.50
2023-02-09T13:28:11.279Z,13.83
2023-02-09T13:30:40.148Z,13.37
2023-02-09T13:33:37.160Z,13.70
2023-02-09T13:36:24.650Z,13.77
2023-02-09T13:38:54.765Z,13.23
2023-02-09T13:41:31.062Z,13.27
2023-02-09T13:44:00.136Z,14.13
2023-02-09T13:46:35.225Z,13.80
2023-02-09T13:49:22.155Z,13.80
2023-02-09T13:52:09.500Z,13.53
2023-02-09T13:54:38.658Z,15.37
2023-02-09T13:57:14.572Z,14.37
2023-02-09T13:59:44.716Z,26.93
2023-02-09T14:02:20.939Z,21.87
2023-02-09T14:04:57.364Z,14.77
2023-02-09T14:07:30.424Z,14.37
2023-02-09T14:10:04.271Z,17.17
2023-02-09T14:12:55.932Z,14.63
2023-02-09T14:15:49.676Z,14.50
2023-02-09T14:18:31.989Z,15.20
2023-02-09T14:21:17.043Z,21.67
2023-02-09T14:23:47.740Z,15.30
2023-02-09T14:26:23.925Z,14.43
2023-02-09T14:28:55.603Z,15.10
2023-02-09T14:31:26.175Z,15.17
2023-02-09T14:33:57.114Z,15.30
2023-02-09T14:36:33.594Z,17.40
2023-02-09T14:39:13.072Z,16.60
2023-02-09T14:41:41.827Z,16.03
2023-02-09T14:44:21.553Z,17.80
2023-02-09T14:46:52.051Z,18.57
2023-02-09T14:49:21.575Z,16.53
2023-02-09T14:51:56.889Z,18.33
2023-02-09T14:54:27.906Z,18.13
2023-02-09T14:56:58.840Z,19.17
2023-02-09T14:59:28.292Z,21.63
2023-02-09T15:01:57.331Z,18.50
2023-02-09T15:04:26.306Z,17.00
2023-02-09T15:07:03.503Z,18.57
2023-02-09T15:09:38.171Z,16.90
2023-02-09T15:12:08.644Z,17.30
2023-02-09T15:14:42.558Z,18.67
2023-02-09T15:17:17.364Z,17.43
2023-02-09T15:19:46.990Z,17.20
2023-02-09T15:22:18.572Z,17.23
2023-02-09T15:24:49.658Z,16.50
2023-02-09T15:27:26.933Z,20.03
2023-02-09T15:29:59.705Z,18.57
2023-02-09T15:32:29.897Z,17.37
2023-02-09T15:34:58.892Z,18.40
2023-02-09T15:37:34.337Z,18.37
2023-02-09T15:40:05.771Z,19.17
2023-02-09T15:42:52.617Z,16.63
2023-02-09T15:45:40.652Z,17.53
2023-02-09T15:48:10.432Z,17.27
2023-02-09T15:50:42.136Z,18.43
2023-02-09T15:53:15.414Z,17.87
2023-02-09T15:55:45.933Z,18.50
2023-02-09T15:58:16.497Z,17.93
2023-02-09T16:00:45.437Z,17.20
2023-02-09T16:03:20.387Z,17.27
2023-02-09T16:05:52.019Z,18.17
2023-02-09T16:08:24.887Z,17.23
2023-02-09T16:10:54.277Z,17.33
2023-02-09T16:13:23.548Z,18.03
2023-02-09T16:15:52.492Z,17.90
2023-02-09T16:18:21.198Z,17.37
2023-02-09T16:20:53.456Z,17.80
2023-02-09T16:23:24.969Z,18.00
2023-02-09T16:25:55.028Z,18.20
2023-02-09T16:28:23.845Z,18.17
2023-02-09T16:30:54.500Z,20.83
2023-02-09T16:33:24.933Z,18.83
2023-02-09T16:35:56.477Z,19.77
2023-02-09T16:38:31.301Z,19.07
2023-02-09T16:41:00.113Z,19.00
2023-02-09T16:43:29.195Z,19.43
2023-02-09T16:46:03.570Z,19.23
2023-02-09T16:48:35.945Z,21.03
2023-02-09T16:51:04.876Z,19.77
2023-02-09T16:53:40.819Z,21.07
2023-02-09T16:56:13.011Z,21.70
2023-02-09T16:58:41.776Z,21.03
2023-02-09T17:01:17.078Z,20.13
2023-02-09T17:03:49.055Z,20.47
2023-02-09T17:06:20.286Z,20.60
2023-02-09T17:08:51.613Z,20.43
2023-02-09T17:11:22.830Z,21.17
2023-02-09T17:13:51.952Z,22.03
2023-02-09T17:16:22.791Z,21.40
2023-02-09T17:18:54.339Z,22.50
2023-02-09T17:21:24.950Z,22.17
2023-02-09T17:23:57.501Z,19.87
2023-02-09T17:26:26.583Z,23.00
2023-02-09T17:28:55.412Z,22.90
2023-02-09T17:31:26.237Z,22.67
2023-02-09T17:33:57.272Z,23.23
2023-02-09T17:36:28.629Z,22.90
2023-02-09T17:39:00.519Z,22.77
2023-02-09T17:41:34.043Z,21.27
2023-02-09T17:44:22.357Z,21.93
2023-02-09T17:46:57.696Z,22.33
2023-02-09T17:49:26.592Z,22.20
2023-02-09T17:51:55.499Z,24.30
2023-02-09T17:54:25.892Z,22.00
2023-02-09T17:56:54.696Z,21.87
2023-02-09T17:59:23.942Z,22.57
2023-02-09T18:01:55.325Z,22.60
2023-02-09T18:04:27.410Z,22.27
2023-02-09T18:06:57.847Z,21.83
2023-02-09T18:09:28.128Z,22.43
2023-02-09T18:12:01.646Z,22.70
2023-02-09T18:14:33.116Z,24.37
2023-02-09T18:17:02.431Z,24.87
2023-02-09T18:19:31.528Z,26.73
2023-02-09T18:22:02.017Z,26.90
2023-02-09T18:24:34.333Z,25.20
2023-02-09T18:27:03.292Z,24.33
2023-02-09T18:29:32.252Z,24.33
2023-02-09T18:32:02.486Z,24.93
2023-02-09T18:34:31.598Z,25.30
2023-02-09T18:37:00.399Z,25.63
2023-02-09T18:39:30.833Z,24.90
2023-02-09T18:42:00.991Z,25.20
2023-02-09T18:44:31.477Z,26.43
2023-02-09T18:47:02.157Z,25.27
2023-02-09T18:49:31.060Z,27.57
2023-02-09T18:52:00.944Z,27.90
2023-02-09T18:54:31.341Z,26.83
2023-02-09T18:57:01.677Z,26.13
2023-02-09T18:59:31.356Z,25.90
2023-02-09T19:02:00.929Z,25.27
2023-02-09T19:04:29.685Z,26.17
2023-02-09T19:06:58.442Z,26.13
2023-02-09T19:09:27.152Z,28.80
2023-02-09T19:11:55.915Z,31.57
2023-02-09T19:14:38.244Z,33.30
2023-02-09T19:17:08.278Z,29.13
2023-02-09T19:19:38.257Z,29.37
2023-02-09T19:22:06.948Z,27.87
2023-02-09T19:24:35.635Z,27.43
2023-02-09T19:27:06.804Z,28.03
2023-02-09T19:29:38.836Z,26.93
2023-02-09T19:32:07.503Z,27.93
2023-02-09T19:34:39.949Z,26.63
2023-02-09T19:37:09.739Z,26.13
2023-02-09T19:39:41.207Z,27.43
2023-02-09T19:42:10.517Z,26.97
2023-02-09T19:44:40.734Z,25.80
2023-02-09T19:47:11.399Z,25.20
2023-02-09T19:49:40.199Z,24.07
2023-02-09T19:52:08.955Z,22.43
2023-02-09T19:54:37.588Z,22.40
2023-02-09T20:01:20.717Z,22.97
2023-02-09T20:03:49.699Z,24.10
2023-02-09T20:06:18.594Z,25.30
2023-02-09T20:08:47.393Z,23.67
2023-02-09T20:11:19.611Z,25.63
2023-02-09T20:13:54.825Z,25.90
2023-02-09T20:16:27.536Z,26.50
2023-02-09T20:18:56.891Z,27.03
2023-02-09T20:21:26.198Z,28.10
2023-02-09T20:24:21.362Z,28.57
2023-02-09T20:26:50.180Z,26.73
2023-02-09T20:29:19.604Z,28.07
2023-02-09T20:31:50.324Z,28.00
2023-02-09T20:34:19.441Z,27.90
2023-02-09T20:36:48.968Z,26.87
2023-02-09T20:39:19.136Z,28.67
2023-02-09T20:42:03.457Z,29.80
2023-02-09T20:45:18.254Z,29.67
2023-02-09T20:47:48.420Z,29.43
2023-02-09T20:50:18.067Z,30.13
2023-02-09T20:52:47.068Z,29.10
2023-02-09T20:55:15.819Z,28.80
2023-02-09T20:57:44.642Z,28.77
2023-02-09T21:00:14.187Z,29.37
2023-02-09T21:02:50.211Z,29.83
2023-02-09T21:05:19.023Z,31.30
2023-02-09T21:07:50.519Z,31.30
2023-02-09T21:10:19.314Z,32.23
2023-02-09T21:12:47.913Z,34.33
2023-02-09T21:15:16.755Z,34.67
2023-02-09T21:18:17.805Z,33.43
2023-02-09T21:20:46.985Z,32.90
2023-02-09T21:23:17.224Z,34.70
2023-02-09T21:25:46.084Z,33.50
2023-02-09T21:28:15.242Z,33.47
2023-02-09T21:30:44.958Z,31.50
2023-02-09T21:33:20.649Z,31.43
2023-02-09T21:35:49.440Z,32.03
2023-02-09T21:38:18.421Z,31.13
2023-02-09T21:40:47.487Z,29.53
2023-02-09T21:43:16.304Z,29.23
2023-02-09T21:45:46.530Z,28.70
2023-02-09T21:48:15.237Z,28.53
2023-02-09T21:50:45.300Z,29.50
2023-02-09T21:53:13.810Z,28.33
2023-02-09T21:55:42.402Z,29.47
2023-02-09T21:58:10.988Z,29.23
2023-02-09T22:00:39.677Z,29.33
2023-02-09T22:03:08.235Z,29.80
2023-02-09T22:05:36.869Z,29.97
2023-02-09T22:08:07.049Z,30.87
2023-02-09T22:10:35.778Z,30.63
2023-02-09T22:13:08.564Z,29.63
2023-02-09T22:15:40.954Z,29.90
2023-02-09T22:18:09.658Z,28.60
2023-02-09T22:20:41.176Z,28.70
2023-02-09T22:23:11.828Z,28.90
2023-02-09T22:25:40.404Z,29.60
2023-02-09T22:28:09.017Z,29.33
2023-02-09T22:30:37.701Z,30.83
2023-02-09T22:33:06.317Z,30.00
2023-02-09T22:35:34.987Z,29.90
2023-02-09T22:38:03.665Z,30.27
2023-02-09T22:40:33.906Z,29.63
2023-02-09T22:43:02.569Z,30.40
2023-02-09T22:45:31.355Z,29.50
2023-02-09T22:48:00.027Z,28.40
2023-02-09T22:50:28.880Z,28.57
2023-02-09T22:52:57.612Z,28.63
2023-02-09T22:55:26.391Z,28.53
2023-02-09T22:57:56.510Z,29.30
2023-02-09T23:00:25.382Z,29.30
2023-02-09T23:02:54.932Z,30.13
2023-02-09T23:05:23.728Z,29.50
2023-02-09T23:07:52.490Z,28.83
2023-02-09T23:10:22.686Z,29.37
2023-02-09T23:12:51.424Z,27.53
2023-02-09T23:15:21.599Z,29.43
2023-02-09T23:17:50.272Z,27.83
2023-02-09T23:20:19.287Z,28.50
2023-02-09T23:22:49.158Z,27.83
2023-02-09T23:25:17.778Z,27.53
2023-02-09T23:27:46.476Z,26.77
2023-02-09T23:30:15.438Z,27.63
2023-02-09T23:32:45.770Z,27.70
2023-02-09T23:35:14.598Z,27.43
2023-02-09T23:37:43.291Z,27.63
2023-02-09T23:40:12.870Z,27.47
2023-02-09T23:42:41.414Z,30.50
2023-02-09T23:45:10.837Z,29.70
2023-02-09T23:47:39.558Z,30.33
2023-02-09T23:50:10.070Z,28.53
2023-02-09T23:52:38.686Z,30.50
2023-02-09T23:55:08.304Z,30.10
2023-02-09T23:57:36.881Z,29.47
